UAE29V OMDB-EDDF
Flight info
| Callsign | UAE29V |
|---|---|
| Flight time | N/A |
| Altitude | 34000 |
| Route | RIDAP M557 TUMAK L602 GADSI M860 KODAV/N0485F360 M860 SEPTU DCT VUSEB M860 NINVA UM860 ODALI UL852 NEGEM DCT MAXOV DCT IRLOX DCT BALUX/N0473F380 DCT TEKNO DCT ABETI DCT TAGAS DCT SUBEN DCT AKINI T161 DEBHI DEBHI1A |
| Aircraft | B77W/H-SDE1E2E3FGHIJ2J3J4J5M1RWXY/LB1D1 |
Departure
| Time | N/A |
|---|---|
| Airport | Dubai International Airport (OMDB) |
Arrival
| Time | 2026-05-05 18:46 |
|---|---|
| Airport | Frankfurt Main Airport (EDDF) |
| Time | Latitude | Longitude | Altitude | Speed | Heading |
|---|---|---|---|---|---|
| 2026-05-05 18:01 | 48.07629 | 15.47630 | 35732 ft | 459 kts | 283° |
| 2026-05-05 18:01 | 48.09246 | 15.38396 | 35731 ft | 459 kts | 283° |
| 2026-05-05 18:02 | 48.10877 | 15.29154 | 35727 ft | 460 kts | 283° |
| 2026-05-05 18:02 | 48.12511 | 15.19904 | 35725 ft | 460 kts | 283° |
| 2026-05-05 18:03 | 48.14137 | 15.10651 | 35718 ft | 460 kts | 283° |
| 2026-05-05 18:03 | 48.15754 | 15.01399 | 35719 ft | 459 kts | 283° |
| 2026-05-05 18:04 | 48.17362 | 14.92147 | 35710 ft | 459 kts | 282° |
| 2026-05-05 18:04 | 48.18963 | 14.82886 | 35716 ft | 458 kts | 282° |
| 2026-05-05 18:05 | 48.20554 | 14.73634 | 35711 ft | 458 kts | 282° |
| 2026-05-05 18:05 | 48.22135 | 14.64392 | 35720 ft | 457 kts | 282° |
| 2026-05-05 18:06 | 48.23813 | 14.55191 | 35724 ft | 458 kts | 285° |
| 2026-05-05 18:06 | 48.25850 | 14.46138 | 35740 ft | 458 kts | 287° |
| 2026-05-05 18:07 | 48.27942 | 14.37087 | 35742 ft | 458 kts | 287° |
| 2026-05-05 18:07 | 48.29996 | 14.28020 | 35747 ft | 458 kts | 286° |
| 2026-05-05 18:08 | 48.32019 | 14.18934 | 35749 ft | 460 kts | 286° |
| 2026-05-05 18:08 | 48.34040 | 14.09769 | 35757 ft | 469 kts | 286° |
| 2026-05-05 18:09 | 48.36094 | 14.00425 | 35743 ft | 471 kts | 286° |
| 2026-05-05 18:09 | 48.38143 | 13.91071 | 35741 ft | 470 kts | 286° |
| 2026-05-05 18:10 | 48.40179 | 13.81732 | 35740 ft | 469 kts | 285° |
| 2026-05-05 18:10 | 48.42205 | 13.72401 | 35743 ft | 468 kts | 285° |
| 2026-05-05 18:11 | 48.44216 | 13.63088 | 35753 ft | 468 kts | 285° |
| 2026-05-05 18:11 | 48.46219 | 13.53773 | 35760 ft | 467 kts | 285° |
| 2026-05-05 18:12 | 48.48214 | 13.44456 | 35756 ft | 467 kts | 285° |
| 2026-05-05 18:12 | 48.50200 | 13.35135 | 35765 ft | 467 kts | 285° |
| 2026-05-05 18:13 | 48.52177 | 13.25814 | 35757 ft | 467 kts | 284° |
| 2026-05-05 18:13 | 48.54150 | 13.16468 | 35763 ft | 467 kts | 284° |
| 2026-05-05 18:14 | 48.56115 | 13.07120 | 35779 ft | 468 kts | 284° |
| 2026-05-05 18:14 | 48.58074 | 12.97756 | 35783 ft | 468 kts | 284° |
| 2026-05-05 18:15 | 48.60025 | 12.88386 | 35783 ft | 468 kts | 284° |
| 2026-05-05 18:15 | 48.61963 | 12.79033 | 35789 ft | 469 kts | 284° |
| 2026-05-05 18:16 | 48.63899 | 12.69651 | 35795 ft | 469 kts | 284° |
| 2026-05-05 18:16 | 48.65835 | 12.60223 | 35795 ft | 469 kts | 283° |
| 2026-05-05 18:17 | 48.67767 | 12.50765 | 35802 ft | 470 kts | 283° |
| 2026-05-05 18:17 | 48.69689 | 12.41314 | 35804 ft | 470 kts | 283° |
| 2026-05-05 18:18 | 48.71607 | 12.31839 | 35813 ft | 471 kts | 283° |
| 2026-05-05 18:18 | 48.73519 | 12.22347 | 35819 ft | 472 kts | 283° |
| 2026-05-05 18:19 | 48.75427 | 12.12827 | 35819 ft | 473 kts | 283° |
| 2026-05-05 18:19 | 48.77330 | 12.03281 | 35820 ft | 473 kts | 283° |
| 2026-05-05 18:20 | 48.79229 | 11.93715 | 35810 ft | 474 kts | 282° |
| 2026-05-05 18:20 | 48.81114 | 11.84174 | 35808 ft | 475 kts | 282° |
| 2026-05-05 18:21 | 48.83001 | 11.74570 | 35808 ft | 475 kts | 282° |
| 2026-05-05 18:21 | 48.84885 | 11.64937 | 35805 ft | 476 kts | 282° |
| 2026-05-05 18:22 | 48.86762 | 11.55293 | 35800 ft | 475 kts | 282° |
| 2026-05-05 18:22 | 48.88604 | 11.45796 | 35363 ft | 464 kts | 282° |
| 2026-05-05 18:22 | 48.89512 | 11.41080 | 34879 ft | 467 kts | 282° |
| 2026-05-05 18:23 | 48.90425 | 11.36324 | 34381 ft | 469 kts | 282° |
| 2026-05-05 18:23 | 48.91340 | 11.31552 | 33907 ft | 471 kts | 282° |
| 2026-05-05 18:23 | 48.92258 | 11.26759 | 33382 ft | 473 kts | 282° |
| 2026-05-05 18:23 | 48.93175 | 11.21960 | 32967 ft | 472 kts | 282° |
| 2026-05-05 18:24 | 48.94088 | 11.17177 | 32624 ft | 470 kts | 282° |
| 2026-05-05 18:24 | 48.95003 | 11.12411 | 32314 ft | 468 kts | 284° |
| 2026-05-05 18:24 | 48.96226 | 11.07875 | 31955 ft | 471 kts | 294° |
| 2026-05-05 18:24 | 48.97983 | 11.03590 | 31530 ft | 473 kts | 303° |
| 2026-05-05 18:25 | 49.00133 | 10.99777 | 31073 ft | 477 kts | 313° |
| 2026-05-05 18:25 | 49.01762 | 10.97512 | 30786 ft | 477 kts | 316° |
| 2026-05-05 18:25 | 49.05060 | 10.93104 | 30255 ft | 475 kts | 316° |
| 2026-05-05 18:25 | 49.07493 | 10.89747 | 29836 ft | 470 kts | 315° |
| 2026-05-05 18:26 | 49.09887 | 10.86372 | 29307 ft | 466 kts | 315° |
| 2026-05-05 18:26 | 49.12259 | 10.83010 | 28761 ft | 462 kts | 315° |
| 2026-05-05 18:26 | 49.14606 | 10.79681 | 28264 ft | 458 kts | 315° |
| 2026-05-05 18:26 | 49.16927 | 10.76393 | 27764 ft | 455 kts | 315° |
| 2026-05-05 18:27 | 49.19245 | 10.73109 | 27283 ft | 451 kts | 315° |
| 2026-05-05 18:27 | 49.21494 | 10.69816 | 26801 ft | 446 kts | 313° |
| 2026-05-05 18:27 | 49.23666 | 10.66408 | 26157 ft | 446 kts | 311° |
| 2026-05-05 18:27 | 49.25814 | 10.62950 | 25465 ft | 448 kts | 311° |
| 2026-05-05 18:28 | 49.30139 | 10.56026 | 24239 ft | 450 kts | 312° |
| 2026-05-05 18:28 | 49.32277 | 10.52645 | 24015 ft | 446 kts | 312° |
| 2026-05-05 18:28 | 49.34442 | 10.49225 | 23867 ft | 449 kts | 312° |
| 2026-05-05 18:29 | 49.36596 | 10.45749 | 23828 ft | 450 kts | 309° |
| 2026-05-05 18:29 | 49.38527 | 10.41959 | 23832 ft | 450 kts | 303° |
| 2026-05-05 18:29 | 49.40286 | 10.38013 | 23576 ft | 447 kts | 302° |
| 2026-05-05 18:29 | 49.41985 | 10.34050 | 23009 ft | 443 kts | 301° |
| 2026-05-05 18:30 | 49.43687 | 10.30114 | 22426 ft | 438 kts | 302° |
| 2026-05-05 18:30 | 49.45387 | 10.26267 | 21865 ft | 433 kts | 302° |
| 2026-05-05 18:30 | 49.47092 | 10.22473 | 21308 ft | 429 kts | 303° |
| 2026-05-05 18:30 | 49.48784 | 10.18738 | 20765 ft | 424 kts | 303° |
| 2026-05-05 18:31 | 49.50466 | 10.15034 | 20211 ft | 420 kts | 303° |
| 2026-05-05 18:31 | 49.52129 | 10.11362 | 19700 ft | 416 kts | 303° |
| 2026-05-05 18:31 | 49.53773 | 10.07723 | 19175 ft | 412 kts | 303° |
| 2026-05-05 18:31 | 49.55404 | 10.04105 | 18971 ft | 415 kts | 303° |
| 2026-05-05 18:32 | 49.57050 | 10.00450 | 18641 ft | 415 kts | 303° |
| 2026-05-05 18:32 | 49.58693 | 9.96799 | 18098 ft | 413 kts | 303° |
| 2026-05-05 18:32 | 49.59774 | 9.94395 | 17755 ft | 409 kts | 302° |
| 2026-05-05 18:32 | 49.61895 | 9.89674 | 17195 ft | 399 kts | 302° |
| 2026-05-05 18:33 | 49.63462 | 9.86178 | 16752 ft | 393 kts | 302° |
| 2026-05-05 18:33 | 49.64913 | 9.82945 | 16276 ft | 389 kts | 303° |
| 2026-05-05 18:33 | 49.66560 | 9.79678 | 15753 ft | 388 kts | 307° |
| 2026-05-05 18:33 | 49.68302 | 9.76501 | 15243 ft | 385 kts | 308° |
| 2026-05-05 18:34 | 49.70046 | 9.73384 | 14762 ft | 382 kts | 308° |
| 2026-05-05 18:34 | 49.71782 | 9.70293 | 14289 ft | 379 kts | 309° |
| 2026-05-05 18:34 | 49.73504 | 9.67236 | 13937 ft | 377 kts | 309° |
| 2026-05-05 18:34 | 49.75233 | 9.64168 | 13761 ft | 380 kts | 309° |
| 2026-05-05 18:35 | 49.76970 | 9.61090 | 13273 ft | 378 kts | 309° |
| 2026-05-05 18:35 | 49.78694 | 9.58038 | 12823 ft | 374 kts | 309° |
| 2026-05-05 18:35 | 49.80392 | 9.55038 | 12394 ft | 368 kts | 309° |
| 2026-05-05 18:35 | 49.81509 | 9.53065 | 12065 ft | 366 kts | 309° |
| 2026-05-05 18:36 | 49.86992 | 9.43387 | 10413 ft | 359 kts | 309° |
| 2026-05-05 18:36 | 49.88514 | 9.40695 | 9986 ft | 357 kts | 309° |
| 2026-05-05 18:37 | 49.90150 | 9.37803 | 9495 ft | 355 kts | 309° |
| 2026-05-05 18:37 | 49.91775 | 9.34926 | 8988 ft | 353 kts | 309° |
| 2026-05-05 18:37 | 49.93384 | 9.32068 | 8520 ft | 350 kts | 309° |
| 2026-05-05 18:37 | 49.94950 | 9.29203 | 8068 ft | 346 kts | 306° |
| 2026-05-05 18:38 | 49.96379 | 9.26275 | 7632 ft | 342 kts | 304° |
| 2026-05-05 18:38 | 49.97750 | 9.23358 | 7548 ft | 328 kts | 304° |
| 2026-05-05 18:38 | 49.99055 | 9.20577 | 7367 ft | 301 kts | 304° |
| 2026-05-05 18:38 | 50.00251 | 9.18030 | 7054 ft | 285 kts | 304° |
| 2026-05-05 18:39 | 50.01384 | 9.15615 | 6692 ft | 276 kts | 303° |
| 2026-05-05 18:39 | 50.02502 | 9.13228 | 6226 ft | 271 kts | 304° |
| 2026-05-05 18:39 | 50.03605 | 9.10870 | 5713 ft | 269 kts | 303° |
| 2026-05-05 18:39 | 50.04700 | 9.08529 | 5210 ft | 266 kts | 303° |
| 2026-05-05 18:40 | 50.05786 | 9.06209 | 4692 ft | 265 kts | 303° |
| 2026-05-05 18:40 | 50.06865 | 9.03897 | 4221 ft | 261 kts | 304° |
| 2026-05-05 18:40 | 50.07942 | 9.01561 | 4049 ft | 269 kts | 304° |
| 2026-05-05 18:40 | 50.09026 | 8.99195 | 4022 ft | 267 kts | 303° |
| 2026-05-05 18:41 | 50.09989 | 8.96784 | 3998 ft | 256 kts | 291° |
| 2026-05-05 18:41 | 50.10552 | 8.94224 | 4003 ft | 245 kts | 284° |
| 2026-05-05 18:41 | 50.11005 | 8.91716 | 3993 ft | 237 kts | 281° |
| 2026-05-05 18:41 | 50.11034 | 8.89207 | 4009 ft | 232 kts | 257° |
| 2026-05-05 18:42 | 50.10629 | 8.86736 | 4018 ft | 239 kts | 253° |
| 2026-05-05 18:42 | 50.10104 | 8.84248 | 3805 ft | 245 kts | 250° |
| 2026-05-05 18:42 | 50.09512 | 8.81756 | 3493 ft | 245 kts | 249° |
| 2026-05-05 18:42 | 50.08917 | 8.79275 | 3205 ft | 242 kts | 250° |
| 2026-05-05 18:43 | 50.08331 | 8.76818 | 2839 ft | 239 kts | 250° |
| 2026-05-05 18:43 | 50.07777 | 8.74491 | 2511 ft | 217 kts | 250° |
| 2026-05-05 18:43 | 50.07289 | 8.72440 | 2237 ft | 187 kts | 250° |
| 2026-05-05 18:43 | 50.06861 | 8.70643 | 2004 ft | 171 kts | 250° |
| 2026-05-05 18:44 | 50.06463 | 8.68966 | 1751 ft | 159 kts | 250° |
| 2026-05-05 18:44 | 50.06095 | 8.67444 | 1551 ft | 145 kts | 249° |
| 2026-05-05 18:44 | 50.05740 | 8.65954 | 1385 ft | 149 kts | 250° |
| 2026-05-05 18:44 | 50.05385 | 8.64452 | 1196 ft | 147 kts | 249° |
| 2026-05-05 18:45 | 50.05029 | 8.62962 | 999 ft | 146 kts | 249° |
| 2026-05-05 18:45 | 50.04683 | 8.61472 | 787 ft | 147 kts | 249° |
| 2026-05-05 18:45 | 50.04328 | 8.59988 | 580 ft | 146 kts | 249° |
| 2026-05-05 18:45 | 50.03972 | 8.58509 | 406 ft | 145 kts | 250° |
| 2026-05-05 18:46 | 50.03633 | 8.57083 | 365 ft | 130 kts | 249° |
| 2026-05-05 18:46 | 50.03369 | 8.55986 | 357 ft | 86 kts | 249° |
| 2026-05-05 18:46 | 50.03213 | 8.55335 | 357 ft | 50 kts | 250° |
| 2026-05-05 18:46 | 50.03099 | 8.54862 | 353 ft | 41 kts | 250° |
| 2026-05-05 18:47 | 50.03026 | 8.54660 | 351 ft | 13 kts | 200° |
| 2026-05-05 18:47 | 50.02952 | 8.54696 | 349 ft | 8 kts | 137° |
| 2026-05-05 18:47 | 50.02935 | 8.54733 | 350 ft | 0 kts | 122° |
| 2026-05-05 18:47 | 50.02934 | 8.54734 | 350 ft | 1 kts | 122° |
| 2026-05-05 18:48 | 50.02904 | 8.54790 | 355 ft | 9 kts | 142° |
| 2026-05-05 18:48 | 50.02844 | 8.54833 | 356 ft | 10 kts | 155° |
| 2026-05-05 18:48 | 50.02829 | 8.54921 | 353 ft | 10 kts | 65° |
| 2026-05-05 18:48 | 50.02853 | 8.55021 | 355 ft | 10 kts | 70° |
| 2026-05-05 18:49 | 50.02877 | 8.55120 | 357 ft | 10 kts | 69° |
| 2026-05-05 18:49 | 50.02901 | 8.55220 | 353 ft | 10 kts | 70° |
| 2026-05-05 18:49 | 50.02924 | 8.55319 | 359 ft | 10 kts | 70° |
| 2026-05-05 18:49 | 50.02949 | 8.55422 | 354 ft | 10 kts | 69° |
| 2026-05-05 18:50 | 50.02974 | 8.55525 | 353 ft | 10 kts | 69° |
| 2026-05-05 18:50 | 50.02999 | 8.55629 | 354 ft | 10 kts | 69° |
| 2026-05-05 18:50 | 50.03010 | 8.55673 | 356 ft | 4 kts | 69° |
| 2026-05-05 18:50 | 50.03020 | 8.55715 | 356 ft | 5 kts | 70° |
| 2026-05-05 18:51 | 50.03032 | 8.55767 | 357 ft | 6 kts | 70° |
| 2026-05-05 18:51 | 50.03046 | 8.55826 | 355 ft | 6 kts | 70° |
| 2026-05-05 18:51 | 50.03061 | 8.55891 | 359 ft | 7 kts | 70° |
| 2026-05-05 18:51 | 50.03079 | 8.55964 | 355 ft | 8 kts | 70° |
| 2026-05-05 18:52 | 50.03097 | 8.56041 | 354 ft | 8 kts | 70° |
| 2026-05-05 18:52 | 50.03115 | 8.56118 | 356 ft | 8 kts | 70° |
| 2026-05-05 18:52 | 50.03133 | 8.56194 | 359 ft | 8 kts | 70° |
| 2026-05-05 18:52 | 50.03151 | 8.56271 | 360 ft | 8 kts | 70° |
| 2026-05-05 18:53 | 50.03170 | 8.56349 | 358 ft | 8 kts | 70° |
| 2026-05-05 18:53 | 50.03190 | 8.56435 | 361 ft | 10 kts | 70° |
| 2026-05-05 18:53 | 50.03221 | 8.56563 | 360 ft | 16 kts | 69° |
| 2026-05-05 18:53 | 50.03261 | 8.56727 | 361 ft | 16 kts | 69° |
| 2026-05-05 18:54 | 50.03301 | 8.56895 | 363 ft | 16 kts | 69° |
| 2026-05-05 18:54 | 50.03338 | 8.57052 | 361 ft | 12 kts | 70° |
| 2026-05-05 18:54 | 50.03356 | 8.57142 | 364 ft | 8 kts | 83° |
| 2026-05-05 18:54 | 50.03342 | 8.57227 | 362 ft | 8 kts | 114° |
| 2026-05-05 18:55 | 50.03315 | 8.57315 | 368 ft | 10 kts | 115° |
| 2026-05-05 18:55 | 50.03284 | 8.57417 | 365 ft | 11 kts | 115° |
| 2026-05-05 18:55 | 50.03253 | 8.57524 | 366 ft | 11 kts | 114° |
| 2026-05-05 18:55 | 50.03223 | 8.57628 | 366 ft | 9 kts | 114° |
| 2026-05-05 18:56 | 50.03195 | 8.57717 | 368 ft | 9 kts | 116° |
| 2026-05-05 18:56 | 50.03167 | 8.57780 | 363 ft | 5 kts | 133° |
| 2026-05-05 18:56 | 50.03146 | 8.57794 | 364 ft | 5 kts | 168° |
| 2026-05-05 18:56 | 50.03114 | 8.57782 | 365 ft | 5 kts | 204° |
| 2026-05-05 18:57 | 50.03087 | 8.57763 | 365 ft | 2 kts | 204° |
| 2026-05-05 18:57 | 50.03078 | 8.57757 | 366 ft | 0 kts | 204° |